Terminal Aerodrome Forecast
Issued by NWS

Home | Current Version | Previous Version | Text Only | Print | Product List | Glossary On
Versions: 1 2 3 4 5 6 7 8 9 10 11 12 13 14
000
FTUS42 KTAE 250700 AAA
TAFABY
TAF AMD
KABY 250757Z 2508/2606 29007KT P6SM BKN025 OVC030
     FM251000 30006KT P6SM SCT030 BKN100
     FM251300 33006KT P6SM FEW250=

USA.gov is the U.S. government's official web portal to all federal, state and local government web resources and services.